Time;durP1;ratioP1;P1;durP2;ratioP2;P2;SDS_P1;SDS_P2;PMS_P1;PMS_P2;Temp;Humidity;BMP_temperature;BMP_pressure;BME280_temperature;BME280_humidity;BME280_pressure;Samples;Min_cycle;Max_cycle;Signal;HPM_P1;HPM_P2
2022/11/10 00:01:45;;;;;;;35.50;18.40;;;;;;;4.47;74.88;100461.85;24488;1328;3051367;-71
2022/11/10 00:04:33;;;;;;;32.10;17.50;;;;;;;4.39;75.05;100467.02;24543;1336;3051995;-71
2022/11/10 00:07:26;;;;;;;36.00;18.70;;;;;;;4.29;75.19;100467.75;24510;1343;3049917;-69
2022/11/10 00:10:17;;;;;;;36.70;17.80;;;;;;;4.22;75.39;100468.73;24541;1327;3068324;-71
2022/11/10 00:13:05;;;;;;;36.30;17.20;;;;;;;4.17;74.76;100468.13;24564;1326;3050407;-71
2022/11/10 00:19:00;;;;;;;27.10;13.80;;;;;;;4.10;75.14;100468.95;24497;1333;3051906;-74
2022/11/10 00:21:48;;;;;;;26.90;11.40;;;;;;;4.99;73.85;100473.45;24527;1344;3052312;-74
2022/11/10 00:24:36;;;;;;;29.70;15.10;;;;;;;5.46;72.35;100467.89;24532;1327;3050679;-73
2022/11/10 00:27:24;;;;;;;28.50;14.90;;;;;;;5.45;72.41;100467.21;24526;1339;3053017;-74
2022/11/10 00:30:12;;;;;;;31.40;15.90;;;;;;;5.25;72.71;100468.20;24506;1320;3049876;-74
2022/11/10 00:33:00;;;;;;;29.10;14.90;;;;;;;5.00;73.34;100474.65;24510;1334;3070866;-71
2022/11/10 00:35:48;;;;;;;34.00;17.30;;;;;;;4.81;73.64;100469.67;24533;1333;3049466;-70
2022/11/10 00:38:37;;;;;;;34.80;17.80;;;;;;;4.67;73.80;100471.00;24566;1334;3057092;-69
2022/11/10 00:41:25;;;;;;;35.00;17.40;;;;;;;4.49;73.95;100470.64;24549;1333;3051449;-71
2022/11/10 00:44:13;;;;;;;41.00;20.90;;;;;;;4.40;74.03;100470.83;24598;1334;3053315;-74
2022/11/10 00:47:00;;;;;;;38.80;19.80;;;;;;;4.30;73.80;100471.88;24530;1318;3050502;-72
2022/11/10 00:49:48;;;;;;;38.80;19.80;;;;;;;4.14;73.66;100469.59;24548;1328;3051965;-72
2022/11/10 00:52:36;;;;;;;35.60;22.80;;;;;;;3.90;73.82;100466.54;24543;1331;3049018;-73
2022/11/10 00:55:24;;;;;;;35.10;22.00;;;;;;;3.74;74.26;100466.28;24540;1324;3068839;-75
2022/11/10 00:58:13;;;;;;;33.80;23.30;;;;;;;3.45;74.91;100465.70;24612;1316;3049557;-74
2022/11/10 01:01:03;;;;;;;35.30;21.40;;;;;;;3.28;75.48;100465.43;24544;1334;3056277;-72
2022/11/10 01:03:51;;;;;;;31.40;17.50;;;;;;;3.18;75.94;100466.44;24584;1324;3052821;-75
2022/11/10 01:06:39;;;;;;;34.00;17.90;;;;;;;3.05;76.34;100467.48;24572;1324;3054618;-75
2022/11/10 01:09:27;;;;;;;33.30;16.80;;;;;;;2.89;76.88;100465.80;24586;1324;3050866;-75
2022/11/10 01:12:16;;;;;;;19.70;10.70;;;;;;;2.85;77.17;100463.61;24584;1327;3053349;-75
2022/11/10 01:15:06;;;;;;;20.00;9.40;;;;;;;3.56;75.42;100464.83;24582;1334;3049148;-75
2022/11/10 01:17:56;;;;;;;22.70;12.30;;;;;;;4.04;73.47;100459.52;24519;1325;3069885;-74
2022/11/10 01:20:50;;;;;;;23.90;13.00;;;;;;;4.07;73.39;100461.39;24564;1333;3049465;-74
2022/11/10 01:23:41;;;;;;;20.90;11.70;;;;;;;3.93;73.87;100463.38;24618;1333;3057390;-74
2022/11/10 01:26:31;;;;;;;22.20;11.00;;;;;;;3.69;74.30;100464.10;24564;1323;3052241;-76
2022/11/10 01:29:18;;;;;;;22.80;12.50;;;;;;;3.48;74.87;100461.49;24557;1316;3054385;-75
2022/11/10 01:32:06;;;;;;;25.20;13.30;;;;;;;3.28;75.62;100467.34;24513;1323;3051780;-74
2022/11/10 01:34:56;;;;;;;21.90;12.40;;;;;;;3.15;76.07;100466.48;24516;1334;3053757;-74
2022/11/10 01:37:46;;;;;;;24.80;13.90;;;;;;;3.07;76.51;100465.05;24529;1331;3049278;-75
2022/11/10 01:40:34;;;;;;;23.20;13.20;;;;;;;2.92;76.46;100466.79;24551;1324;3070378;-75
2022/11/10 01:43:25;;;;;;;26.40;15.30;;;;;;;2.82;76.99;100465.36;24568;1325;3050728;-75
2022/11/10 01:46:13;;;;;;;20.30;12.60;;;;;;;2.83;77.44;100466.21;24568;1334;3058247;-74
2022/11/10 01:49:02;;;;;;;22.40;12.60;;;;;;;2.86;77.41;100467.57;24588;1325;3051554;-76
2022/11/10 01:52:08;;;;;;;22.60;14.10;;;;;;;2.81;77.76;100469.02;24547;1329;3054541;-75
2022/11/10 01:54:58;;;;;;;18.40;10.30;;;;;;;2.84;78.22;100468.29;24565;1333;3051836;-75
2022/11/10 01:57:46;;;;;;;20.30;8.80;;;;;;;3.62;77.17;100464.91;24535;1327;3052770;-74
2022/11/10 02:00:35;;;;;;;19.00;10.80;;;;;;;4.16;75.60;100465.20;24540;1327;3052291;-74
2022/11/10 02:03:41;;;;;;;21.10;12.30;;;;;;;4.29;75.62;100466.36;24549;1334;3069864;-75
2022/11/10 02:06:34;;;;;;;25.30;10.10;;;;;;;4.17;75.33;100466.23;24559;1334;3050748;-76
2022/11/10 02:09:22;;;;;;;23.90;11.50;;;;;;;3.94;75.73;100462.83;24555;1334;3056723;-74
2022/11/10 02:12:13;;;;;;;22.30;12.80;;;;;;;3.72;76.58;100468.73;24540;1334;3052145;-74
2022/11/10 02:15:00;;;;;;;24.20;13.30;;;;;;;3.50;77.58;100469.77;24530;1324;3052250;-74
2022/11/10 02:17:49;;;;;;;25.70;12.70;;;;;;;3.45;77.88;100476.77;24569;1333;3050414;-72
2022/11/10 02:20:37;;;;;;;27.20;13.40;;;;;;;3.44;78.01;100479.05;24552;1331;3053746;-71
2022/11/10 02:23:33;;;;;;;21.90;11.70;;;;;;;3.39;77.88;100485.36;24582;1325;3050812;-73
2022/11/10 02:26:23;;;;;;;25.80;13.30;;;;;;;3.35;77.45;100485.07;24574;1334;3070439;-74
2022/11/10 02:29:12;;;;;;;21.30;10.60;;;;;;;3.38;77.69;100482.77;24524;1334;3050019;-74
2022/11/10 02:31:59;;;;;;;14.30;7.10;;;;;;;4.20;76.07;100479.69;24575;1326;3056322;-73
2022/11/10 02:34:47;;;;;;;18.50;10.00;;;;;;;4.89;74.19;100483.91;24597;1332;3054094;-74
2022/11/10 02:37:36;;;;;;;17.40;10.50;;;;;;;4.92;73.28;100478.80;24582;1337;3052473;-75
2022/11/10 02:40:24;;;;;;;19.20;9.70;;;;;;;4.73;73.01;100478.52;24542;1333;3051582;-73
2022/11/10 02:43:13;;;;;;;19.60;11.20;;;;;;;4.47;73.46;100471.74;24561;1340;3053486;-73
2022/11/10 02:46:02;;;;;;;23.50;12.10;;;;;;;4.27;73.94;100468.99;24523;1340;3049475;-73
2022/11/10 02:48:50;;;;;;;22.10;13.00;;;;;;;4.09;74.12;100464.64;24548;1323;3069533;-73
2022/11/10 02:51:38;;;;;;;22.80;12.30;;;;;;;3.86;74.52;100465.21;24571;1326;3050342;-74
2022/11/10 02:54:26;;;;;;;22.50;12.90;;;;;;;3.69;74.92;100465.14;24559;1334;3056950;-73
2022/11/10 02:57:14;;;;;;;20.40;12.50;;;;;;;3.62;75.51;100459.37;24526;1340;3051658;-73
2022/11/10 03:00:04;;;;;;;23.60;12.60;;;;;;;3.52;75.42;100461.77;24560;1324;3052630;-73
2022/11/10 03:03:00;;;;;;;21.90;12.90;;;;;;;3.40;75.80;100462.99;24525;1325;3050850;-72
2022/11/10 03:05:49;;;;;;;20.80;12.60;;;;;;;3.32;76.39;100460.17;24562;1327;3052055;-71
2022/11/10 03:08:40;;;;;;;24.50;12.30;;;;;;;3.32;76.27;100463.81;24627;1333;3049871;-73
2022/11/10 03:11:28;;;;;;;18.90;9.50;;;;;;;3.35;76.09;100464.80;24564;1330;3069115;-73
2022/11/10 03:14:15;;;;;;;15.40;7.10;;;;;;;4.12;75.01;100468.56;24590;1327;3049828;-74
2022/11/10 03:17:05;;;;;;;15.90;8.80;;;;;;;4.76;73.34;100472.91;24588;1330;3057165;-73
2022/11/10 03:19:52;;;;;;;19.10;9.40;;;;;;;4.83;73.14;100475.35;24530;1340;3051831;-72
2022/11/10 03:22:39;;;;;;;16.50;9.20;;;;;;;4.67;72.89;100473.95;24587;1326;3051937;-72
2022/11/10 03:25:27;;;;;;;17.20;9.60;;;;;;;4.45;73.13;100475.77;24587;1324;3052011;-72
2022/11/10 03:28:16;;;;;;;17.90;9.40;;;;;;;4.24;73.26;100477.55;24543;1334;3053677;-72
2022/11/10 03:31:04;;;;;;;18.10;10.70;;;;;;;4.09;73.55;100479.56;24543;1326;3051878;-74
2022/11/10 03:33:52;;;;;;;17.20;10.40;;;;;;;3.91;73.46;100484.02;24544;1334;3071440;-73
2022/11/10 03:36:40;;;;;;;19.00;10.40;;;;;;;3.67;73.59;100486.14;24516;1335;3051549;-73
2022/11/10 03:39:29;;;;;;;20.50;10.60;;;;;;;3.40;73.84;100484.30;24567;1325;3057028;-73
2022/11/10 03:42:16;;;;;;;22.00;11.60;;;;;;;3.20;74.55;100484.77;24558;1324;3051078;-72
2022/11/10 03:45:05;;;;;;;19.80;10.90;;;;;;;3.03;75.83;100489.32;24528;1338;3054593;-73
2022/11/10 03:47:53;;;;;;;19.00;10.90;;;;;;;2.92;76.16;100489.46;24576;1317;3050646;-73
2022/11/10 03:50:41;;;;;;;20.60;11.80;;;;;;;2.80;76.99;100490.83;24579;1339;3052454;-73
2022/11/10 03:53:28;;;;;;;19.60;10.60;;;;;;;2.71;77.37;100494.23;24518;1333;3052748;-72
2022/11/10 03:56:18;;;;;;;12.10;7.80;;;;;;;2.66;77.94;100493.41;24512;1330;3069879;-74
2022/11/10 03:59:07;;;;;;;11.90;6.20;;;;;;;3.36;76.29;100494.23;24574;1340;3050986;-73
2022/11/10 04:01:55;;;;;;;14.10;8.20;;;;;;;3.94;73.90;100495.25;24606;1333;3056570;-76
2022/11/10 04:11:05;;;;;;;18.00;10.30;;;;;;;3.45;74.38;100497.58;24558;1327;3051172;-74
2022/11/10 04:17:04;;;;;;;15.80;9.70;;;;;;;3.04;75.99;100497.80;24552;1334;3049560;-75
2022/11/10 04:19:52;;;;;;;20.10;11.20;;;;;;;2.87;76.58;100504.23;24518;1333;3069436;-77
2022/11/10 04:26:27;;;;;;;21.90;10.90;;;;;;;2.72;77.72;100506.49;24599;1334;3057078;-76
2022/11/10 04:28:56;;;;;;;15.70;10.30;;;;;;;2.60;78.25;100510.78;24638;1340;3051324;-74
2022/11/10 04:31:46;;;;;;;22.30;10.00;;;;;;;2.49;78.81;100513.48;24593;1330;3053626;-74
2022/11/10 04:34:34;;;;;;;16.00;9.00;;;;;;;2.52;79.15;100512.25;24552;1333;3051640;-69
2022/11/10 04:37:22;;;;;;;12.70;7.00;;;;;;;3.27;77.10;100511.49;24690;1326;3053208;-75
2022/11/10 04:40:10;;;;;;;15.40;7.70;;;;;;;3.84;74.67;100515.69;24585;1333;3050594;-74
2022/11/10 04:42:58;;;;;;;16.30;8.90;;;;;;;3.84;74.02;100517.08;24573;1333;3069432;-75
2022/11/10 04:45:46;;;;;;;16.10;9.90;;;;;;;3.65;74.35;100517.55;24559;1334;3051044;-74
2022/11/10 04:48:34;;;;;;;13.70;9.10;;;;;;;3.43;74.85;100520.11;24626;1322;3056018;-74
2022/11/10 04:51:30;;;;;;;16.70;9.90;;;;;;;3.31;75.61;100520.98;24604;1313;3053688;-75
2022/11/10 04:54:18;;;;;;;17.00;10.30;;;;;;;3.13;75.56;100521.56;24565;1334;3053992;-76
2022/11/10 04:57:05;;;;;;;17.30;11.20;;;;;;;3.02;75.92;100522.23;24649;1326;3051522;-76
2022/11/10 04:59:53;;;;;;;20.40;11.40;;;;;;;2.88;76.53;100523.09;24618;1333;3051837;-75
2022/11/10 05:02:41;;;;;;;17.70;10.80;;;;;;;2.74;76.89;100523.95;24632;1333;3050267;-74
2022/11/10 05:05:31;;;;;;;20.50;12.60;;;;;;;2.63;77.43;100529.61;24576;1333;3068774;-75
2022/11/10 05:08:20;;;;;;;17.50;12.00;;;;;;;2.51;78.31;100533.19;24604;1333;3050720;-67
2022/11/10 05:11:09;;;;;;;17.50;11.30;;;;;;;2.46;78.50;100529.96;24502;1324;3055950;-73
2022/11/10 05:16:15;;;;;;;12.70;7.30;;;;;;;2.97;77.21;100533.70;30903;1337;3018569;-64
2022/11/10 05:19:03;;;;;;;16.00;9.20;;;;;;;3.59;74.79;100536.52;24418;1332;3068734;-63
2022/11/10 05:21:50;;;;;;;15.40;9.90;;;;;;;3.63;74.51;100541.31;24436;1343;3050830;-63
2022/11/10 05:24:39;;;;;;;17.50;11.20;;;;;;;3.50;74.91;100544.44;24381;1332;3057922;-62
2022/11/10 05:27:27;;;;;;;19.10;10.80;;;;;;;3.31;75.32;100544.17;24437;1332;3052398;-63
2022/11/10 05:30:12;;;;;;;19.40;11.00;;;;;;;3.17;76.01;100546.60;24091;1317;3056168;-63
2022/11/10 05:33:01;;;;;;;18.60;10.80;;;;;;;3.11;76.21;100547.55;24533;1332;3053066;-64
2022/11/10 05:35:50;;;;;;;19.10;10.30;;;;;;;3.00;76.55;100549.24;24538;1333;3053852;-62
2022/11/10 05:38:37;;;;;;;18.10;11.70;;;;;;;2.93;76.60;100550.55;24452;1333;3050659;-63
2022/11/10 05:44:20;;;;;;;13.20;8.40;;;;;;;2.91;77.24;100551.61;30928;1336;3012699;-61
2022/11/10 05:47:08;;;;;;;12.80;7.20;;;;;;;3.43;75.72;100554.93;24457;1339;3070135;-62
2022/11/10 05:49:57;;;;;;;14.60;8.50;;;;;;;4.01;73.82;100559.27;24426;1341;3051430;-63
2022/11/10 05:52:46;;;;;;;19.10;11.20;;;;;;;4.11;73.60;100564.66;24390;1340;3057847;-64
2022/11/10 05:55:34;;;;;;;23.30;12.50;;;;;;;3.96;73.83;100562.98;24389;1340;3053204;-63
2022/11/10 05:58:22;;;;;;;20.90;12.60;;;;;;;3.79;74.32;100565.33;23991;1330;3054636;-64
2022/11/10 06:01:10;;;;;;;22.80;12.60;;;;;;;3.58;74.95;100570.48;24495;1327;3052477;-66
2022/11/10 06:03:57;;;;;;;23.50;13.10;;;;;;;3.52;75.57;100569.88;24517;1335;3051925;-62
2022/11/10 06:06:45;;;;;;;21.20;13.30;;;;;;;3.43;75.64;100575.71;24474;1343;3050394;-65
2022/11/10 06:09:35;;;;;;;23.20;13.90;;;;;;;3.44;76.39;100571.38;24472;1333;3068985;-65
2022/11/10 06:12:29;;;;;;;20.90;13.20;;;;;;;3.37;76.49;100575.62;24516;1334;3050260;-65
2022/11/10 06:15:18;;;;;;;18.00;12.40;;;;;;;3.31;76.85;100573.63;24470;1334;3057492;-66
2022/11/10 06:21:18;;;;;;;20.50;12.50;;;;;;;3.33;77.21;100572.04;30921;1342;3012447;-64
2022/11/10 06:24:06;;;;;;;;;;;;;;;3.33;77.15;100574.64;24467;1341;3069700;-63
2022/11/10 06:26:54;;;;;;;10.90;6.80;;;;;;;4.06;75.38;100570.95;24446;1347;3049122;-64
2022/11/10 06:29:42;;;;;;;12.10;6.70;;;;;;;4.90;71.96;100568.45;24397;1337;3056637;-64
2022/11/10 06:32:29;;;;;;;13.60;8.10;;;;;;;4.95;71.18;100572.34;24402;1346;3054155;-63
2022/11/10 06:35:18;;;;;;;18.10;10.40;;;;;;;4.89;71.45;100574.20;23756;1339;4284664;-66
2022/11/10 06:38:09;;;;;;;17.30;9.80;;;;;;;4.68;71.87;100574.94;24467;1337;3057238;-63
2022/11/10 06:40:57;;;;;;;16.10;10.00;;;;;;;4.51;72.51;100574.56;24461;1342;3054071;-62
2022/11/10 06:43:44;;;;;;;15.70;9.10;;;;;;;4.40;73.60;100578.03;24481;1337;3053529;-62
2022/11/10 06:46:33;;;;;;;17.60;10.20;;;;;;;4.35;74.13;100581.23;24435;1327;3050007;-62
2022/11/10 06:49:21;;;;;;;17.60;10.80;;;;;;;4.32;74.76;100586.49;24427;1336;3052802;-62
2022/11/10 06:52:10;;;;;;;15.90;10.30;;;;;;;4.29;75.32;100587.25;24449;1330;3050902;-63
2022/11/10 06:54:58;;;;;;;19.10;10.60;;;;;;;4.34;75.26;100591.14;24481;1329;3070425;-62
2022/11/10 06:57:46;;;;;;;18.70;11.00;;;;;;;4.34;75.21;100593.23;24485;1344;3051022;-62
2022/11/10 07:00:35;;;;;;;18.90;10.20;;;;;;;4.35;75.20;100591.83;24419;1329;3056283;-62
2022/11/10 07:03:22;;;;;;;21.40;11.00;;;;;;;4.35;75.32;100592.70;24435;1335;3053732;-63
2022/11/10 07:06:11;;;;;;;21.70;11.00;;;;;;;4.36;75.50;100592.52;24507;1334;3054698;-64
2022/11/10 07:08:58;;;;;;;20.20;11.10;;;;;;;4.39;75.85;100593.50;24521;1326;3051955;-63
2022/11/10 07:11:48;;;;;;;21.40;11.70;;;;;;;4.46;75.46;100590.59;24517;1340;3053841;-64
2022/11/10 07:14:37;;;;;;;23.30;13.70;;;;;;;4.45;75.99;100588.52;24447;1333;3049676;-61
2022/11/10 07:17:25;;;;;;;22.20;12.50;;;;;;;4.54;75.96;100590.12;24491;1331;3070220;-64
2022/11/10 07:20:12;;;;;;;16.30;9.30;;;;;;;5.29;73.84;100583.96;24509;1333;3050191;-63
2022/11/10 07:23:01;;;;;;;18.70;10.80;;;;;;;5.86;70.87;100587.25;24549;1316;3056749;-64
2022/11/10 07:25:49;;;;;;;19.20;11.80;;;;;;;5.96;70.22;100583.39;24508;1330;3052405;-64
2022/11/10 07:28:36;;;;;;;21.80;11.70;;;;;;;5.89;70.81;100584.75;24541;1331;3053201;-63
2022/11/10 07:31:25;;;;;;;28.80;13.70;;;;;;;5.79;71.23;100583.93;24503;1334;3050739;-64
2022/11/10 07:34:12;;;;;;;25.30;14.20;;;;;;;5.68;71.98;100584.88;24582;1331;3052721;-64
2022/11/10 07:37:01;;;;;;;26.10;14.40;;;;;;;5.59;72.45;100581.08;24585;1331;3050115;-63
2022/11/10 07:39:50;;;;;;;24.90;15.20;;;;;;;5.64;72.60;100585.32;24613;1332;3068677;-64
2022/11/10 07:42:39;;;;;;;29.70;16.80;;;;;;;5.58;73.36;100586.14;24528;1331;3050706;-64
2022/11/10 07:45:28;;;;;;;29.90;15.60;;;;;;;5.62;73.28;100585.73;24637;1324;3057505;-64
2022/11/10 07:48:16;;;;;;;28.90;16.70;;;;;;;5.57;73.72;100587.73;24559;1324;3053488;-65
2022/11/10 07:51:05;;;;;;;30.20;17.20;;;;;;;5.61;73.66;100589.02;24554;1337;3054576;-63
2022/11/10 07:53:52;;;;;;;27.30;16.10;;;;;;;5.60;73.77;100594.61;24468;1326;3051986;-64
2022/11/10 07:56:42;;;;;;;32.60;18.10;;;;;;;5.59;74.33;100597.41;24530;1340;3053201;-64
2022/11/10 07:59:30;;;;;;;35.60;18.50;;;;;;;5.60;73.86;100598.42;24525;1327;3049387;-65
2022/11/10 08:02:18;;;;;;;33.80;19.40;;;;;;;5.61;73.97;100604.85;24566;1330;3070596;-67
2022/11/10 08:05:07;;;;;;;32.60;18.70;;;;;;;5.59;74.41;100604.19;24538;1330;3050357;-68
2022/11/10 08:07:55;;;;;;;34.80;18.60;;;;;;;5.58;74.93;100604.05;24531;1324;3057288;-67
2022/11/10 08:10:42;;;;;;;35.20;19.30;;;;;;;5.55;75.26;100612.45;24553;1324;3053417;-68
2022/11/10 08:13:30;;;;;;;25.20;12.60;;;;;;;5.67;75.36;100616.02;24532;1340;3054693;-66
2022/11/10 08:16:22;;;;;;;25.10;13.40;;;;;;;6.52;72.68;100612.62;24524;1331;3050464;-64
2022/11/10 08:19:09;;;;;;;28.90;15.40;;;;;;;7.16;70.25;100610.60;24621;1339;3053909;-66
2022/11/10 08:21:57;;;;;;;30.50;17.00;;;;;;;7.35;69.54;100606.04;24768;1332;3050259;-69
2022/11/10 08:24:44;;;;;;;41.10;19.00;;;;;;;7.38;69.34;100605.06;24898;1331;3068255;-68
2022/11/10 08:27:32;;;;;;;38.10;19.40;;;;;;;7.38;69.80;100605.79;24583;1331;3049990;-68
2022/11/10 08:30:20;;;;;;;30.50;17.60;;;;;;;7.38;70.05;100603.34;24541;1338;3057959;-66
2022/11/10 08:33:09;;;;;;;30.70;17.00;;;;;;;7.39;70.68;100605.05;24562;1339;3053554;-67
2022/11/10 08:35:59;;;;;;;34.50;18.50;;;;;;;7.41;70.65;100603.79;24601;1332;3054757;-67
2022/11/10 08:38:47;;;;;;;43.00;18.20;;;;;;;7.42;70.48;100602.88;24608;1331;3052497;-67
2022/11/10 08:41:35;;;;;;;43.20;21.50;;;;;;;7.38;71.25;100602.46;24573;1331;3052859;-64
2022/11/10 08:44:23;;;;;;;40.30;20.80;;;;;;;7.42;71.43;100602.36;24597;1323;3050918;-65
2022/11/10 08:47:11;;;;;;;42.10;20.70;;;;;;;7.45;71.49;100599.48;24551;1324;3070335;-65
2022/11/10 08:50:00;;;;;;;36.70;20.20;;;;;;;7.52;71.75;100602.93;24546;1331;3050874;-71
2022/11/10 08:52:48;;;;;;;33.20;19.20;;;;;;;7.69;71.20;100603.98;24539;1330;3057423;-68
2022/11/10 08:55:36;;;;;;;36.90;18.80;;;;;;;7.86;70.62;100603.14;24533;1323;3054222;-72
2022/11/10 08:58:24;;;;;;;37.40;18.20;;;;;;;7.99;70.48;100604.12;24573;1333;3054604;-73
2022/11/10 09:01:11;;;;;;;36.90;18.50;;;;;;;8.06;69.93;100600.40;24566;1324;3050893;-70
2022/11/10 09:03:59;;;;;;;35.00;19.80;;;;;;;8.09;69.92;100598.04;24625;1334;3053145;-70
2022/11/10 09:06:48;;;;;;;37.80;20.30;;;;;;;8.08;70.11;100602.62;24549;1340;3050635;-68
2022/11/10 09:09:36;;;;;;;39.80;20.90;;;;;;;8.09;70.19;100603.29;24578;1316;3069847;-66
2022/11/10 09:12:24;;;;;;;40.50;21.00;;;;;;;8.13;70.47;100604.17;24617;1331;3050070;-66
2022/11/10 09:15:13;;;;;;;37.50;20.60;;;;;;;8.23;70.02;100599.84;24603;1330;3057577;-66
2022/11/10 09:18:02;;;;;;;43.60;20.60;;;;;;;8.32;69.55;100599.20;24547;1333;3051855;-63
2022/11/10 09:20:49;;;;;;;46.70;22.30;;;;;;;8.30;69.22;100598.23;24475;1332;3054739;-63
2022/11/10 09:23:37;;;;;;;44.80;21.20;;;;;;;8.16;69.59;100598.86;24499;1331;3052082;-63
2022/11/10 09:26:25;;;;;;;39.30;19.70;;;;;;;8.27;69.28;100595.00;24525;1331;3053240;-72
2022/11/10 09:29:13;;;;;;;40.50;19.10;;;;;;;8.41;68.84;100592.46;24534;1327;3051249;-67
2022/11/10 09:32:02;;;;;;;31.10;17.90;;;;;;;8.46;68.53;100595.61;24528;1331;3070186;-65
2022/11/10 09:34:49;;;;;;;35.10;18.40;;;;;;;8.41;67.99;100594.04;24637;1333;3050646;-64
2022/11/10 09:37:39;;;;;;;31.70;16.70;;;;;;;8.54;67.39;100589.77;24603;1324;3058499;-65
2022/11/10 09:40:36;;;;;;;30.20;16.30;;;;;;;8.62;67.12;100585.30;24460;1324;3054366;-63
2022/11/10 09:43:47;;;;;;;31.20;17.20;;;;;;;8.73;66.70;100586.66;24610;1331;3054061;-66
2022/11/10 09:46:37;;;;;;;31.80;16.40;;;;;;;8.70;66.06;100589.41;24536;1337;3051032;-69
2022/11/10 09:49:34;;;;;;;32.50;16.60;;;;;;;8.64;66.16;100587.00;24621;1331;3054415;-69
2022/11/10 09:52:22;;;;;;;26.20;13.10;;;;;;;8.68;65.87;100586.67;24557;1334;3050096;-69
2022/11/10 09:55:25;;;;;;;24.80;13.30;;;;;;;8.79;65.14;100586.48;24539;1332;3069241;-65
2022/11/10 09:58:13;;;;;;;23.40;12.90;;;;;;;8.92;64.88;100586.52;24539;1330;3051648;-65
2022/11/10 10:01:12;;;;;;;23.70;12.70;;;;;;;9.00;64.27;100584.85;24471;1331;3055673;-65
2022/11/10 10:04:23;;;;;;;28.50;13.60;;;;;;;9.03;63.92;100583.87;24607;1334;3054110;-65
2022/11/10 10:07:21;;;;;;;34.70;17.70;;;;;;;9.04;63.95;100579.12;24508;1332;3054404;-66
2022/11/10 10:10:15;;;;;;;29.90;15.10;;;;;;;9.09;64.34;100579.10;24502;1330;3050566;-67
2022/11/10 10:13:41;;;;;;;26.20;14.20;;;;;;;9.17;63.76;100576.38;24484;1331;3052790;-65
2022/11/10 10:16:38;;;;;;;24.30;14.70;;;;;;;9.05;63.59;100580.30;24494;1331;3049683;-65
2022/11/10 10:19:38;;;;;;;30.50;14.50;;;;;;;9.06;63.96;100576.42;24512;1334;3069181;-63
2022/11/10 10:22:43;;;;;;;21.80;13.10;;;;;;;9.08;63.71;100573.20;24571;1324;3050676;-64
2022/11/10 10:25:31;;;;;;;30.40;14.50;;;;;;;9.10;63.07;100569.27;24498;1336;3056944;-63
2022/11/10 10:28:24;;;;;;;20.70;12.80;;;;;;;9.04;63.18;100566.16;24448;1334;3054302;-61
2022/11/10 10:31:23;;;;;;;23.40;14.00;;;;;;;9.03;63.68;100567.61;24511;1340;3053803;-67
2022/11/10 10:34:13;;;;;;;26.90;14.50;;;;;;;8.92;63.61;100567.13;24480;1323;3051061;-63
2022/11/10 10:37:01;;;;;;;26.90;14.60;;;;;;;8.78;64.03;100568.52;24510;1331;3053015;-61
2022/11/10 10:39:50;;;;;;;23.50;13.50;;;;;;;8.74;63.60;100571.45;24495;1331;3051090;-69
2022/11/10 10:42:40;;;;;;;22.80;12.40;;;;;;;8.70;63.50;100570.89;24536;1324;3069454;-62
2022/11/10 10:45:28;;;;;;;22.70;12.20;;;;;;;8.71;63.23;100567.86;24596;1334;3049571;-69
2022/11/10 10:48:27;;;;;;;24.60;13.50;;;;;;;8.73;63.23;100568.70;24494;1331;3057458;-68
2022/11/10 10:51:28;;;;;;;22.00;13.00;;;;;;;8.95;62.59;100563.17;24549;1324;3053803;-70
2022/11/10 10:54:24;;;;;;;25.70;14.10;;;;;;;9.09;62.36;100562.15;24596;1323;3054224;-71
2022/11/10 10:57:29;;;;;;;23.90;13.00;;;;;;;9.19;62.10;100562.48;24575;1331;3051947;-70
2022/11/10 11:00:20;;;;;;;23.30;14.30;;;;;;;9.12;62.43;100565.00;24578;1324;3053054;-69
2022/11/10 11:03:12;;;;;;;24.60;13.60;;;;;;;9.05;62.88;100562.98;24560;1332;3048886;-68
2022/11/10 11:06:03;;;;;;;27.40;14.00;;;;;;;8.98;62.81;100564.98;24601;1334;3067886;-68
2022/11/10 11:08:53;;;;;;;23.30;13.50;;;;;;;8.89;63.10;100563.05;24556;1334;3049421;-70
2022/11/10 11:11:43;;;;;;;22.30;11.30;;;;;;;8.74;63.02;100560.27;24591;1324;3056266;-70
2022/11/10 11:14:30;;;;;;;16.90;9.30;;;;;;;8.67;63.03;100561.20;24583;1331;3053851;-72
2022/11/10 11:17:21;;;;;;;19.50;9.80;;;;;;;8.76;63.17;100561.24;24574;1331;3054443;-71
2022/11/10 11:20:13;;;;;;;11.40;8.10;;;;;;;8.73;63.05;100561.52;24593;1324;3052742;-70
2022/11/10 11:23:17;;;;;;;12.50;7.20;;;;;;;8.71;62.61;100558.79;24562;1332;3053382;-74
2022/11/10 11:26:15;;;;;;;12.50;7.70;;;;;;;8.93;62.11;100564.48;24569;1335;3050082;-62
2022/11/10 11:29:21;;;;;;;12.50;7.90;;;;;;;9.11;61.59;100557.50;24516;1327;3068796;-62
2022/11/10 11:32:51;;;;;;;16.60;9.70;;;;;;;9.24;61.12;100563.13;24480;1324;3050862;-63
2022/11/10 11:36:01;;;;;;;16.50;8.10;;;;;;;9.50;60.42;100563.92;24533;1341;3058327;-63
2022/11/10 11:39:02;;;;;;;15.40;7.80;;;;;;;9.55;59.49;100572.64;24517;1331;3054262;-63
2022/11/10 11:42:08;;;;;;;17.40;9.40;;;;;;;9.35;59.62;100573.27;24544;1331;3053851;-64
2022/11/10 11:45:20;;;;;;;21.30;10.50;;;;;;;9.10;60.31;100567.52;24540;1332;3052912;-63
2022/11/10 11:48:27;;;;;;;28.90;12.40;;;;;;;8.90;60.92;100568.08;24518;1331;3053708;-63
2022/11/10 11:51:20;;;;;;;18.30;10.70;;;;;;;8.93;61.33;100566.05;24658;1325;3050592;-65
2022/11/10 11:54:28;;;;;;;27.20;11.00;;;;;;;8.96;60.98;100565.59;24603;1331;3070138;-64
2022/11/10 11:57:38;;;;;;;16.40;8.60;;;;;;;9.08;61.05;100559.73;24518;1324;3050279;-64
2022/11/10 12:00:26;;;;;;;20.40;11.10;;;;;;;9.08;61.94;100563.23;24516;1325;3057882;-65
2022/11/10 12:03:20;;;;;;;21.00;12.60;;;;;;;9.03;62.83;100563.92;24579;1324;3054931;-61
2022/11/10 12:06:17;;;;;;;22.00;13.10;;;;;;;9.08;63.07;100564.11;24532;1331;3055016;-64
2022/11/10 12:09:11;;;;;;;22.70;11.90;;;;;;;9.05;62.88;100561.95;24530;1336;3052646;-62
2022/11/10 12:12:05;;;;;;;19.80;11.80;;;;;;;9.08;62.59;100558.14;24486;1334;3053626;-64
2022/11/10 12:15:16;;;;;;;18.80;11.30;;;;;;;9.11;62.29;100558.76;25405;1334;3050395;-62
2022/11/10 12:18:36;;;;;;;20.70;11.10;;;;;;;9.01;62.61;100558.06;24473;1324;3070228;-63
2022/11/10 12:21:35;;;;;;;21.10;11.20;;;;;;;8.96;62.94;100557.90;24470;1334;3051737;-65
2022/11/10 12:24:38;;;;;;;22.60;12.20;;;;;;;8.92;63.16;100560.15;24538;1331;3057969;-63
2022/11/10 12:27:31;;;;;;;22.80;12.60;;;;;;;8.91;63.42;100564.03;24568;1331;3053467;-65
2022/11/10 12:30:19;;;;;;;21.60;13.30;;;;;;;8.90;64.01;100562.67;24528;1331;3055023;-62
2022/11/10 12:33:34;;;;;;;26.60;15.50;;;;;;;8.89;63.94;100561.48;24489;1324;3052601;-63
2022/11/10 12:36:22;;;;;;;26.70;14.70;;;;;;;8.86;64.13;100565.23;24606;1324;3051656;-63
2022/11/10 12:39:34;;;;;;;22.90;13.70;;;;;;;8.93;64.18;100565.16;24554;1334;3050537;-65
2022/11/10 12:42:24;;;;;;;27.60;15.50;;;;;;;9.05;63.71;100558.10;24517;1324;3069198;-65
2022/11/10 12:45:20;;;;;;;25.40;15.10;;;;;;;9.08;63.55;100557.28;24617;1331;3050063;-68
2022/11/10 12:48:10;;;;;;;26.60;15.20;;;;;;;9.01;63.96;100558.25;24567;1340;3058257;-63
2022/11/10 12:51:26;;;;;;;30.80;15.10;;;;;;;8.92;64.27;100561.70;24673;1323;3053358;-62
2022/11/10 12:54:15;;;;;;;25.30;14.40;;;;;;;8.81;64.97;100565.60;24564;1331;3055496;-63
2022/11/10 12:57:06;;;;;;;27.50;15.60;;;;;;;8.80;65.22;100570.19;24489;1331;3052544;-61
2022/11/10 13:00:07;;;;;;;27.70;15.00;;;;;;;8.75;65.63;100567.56;24508;1341;3052892;-63
2022/11/10 13:02:55;;;;;;;28.00;16.70;;;;;;;8.71;65.50;100566.64;24489;1341;3051092;-61
2022/11/10 13:05:44;;;;;;;29.70;16.30;;;;;;;8.71;65.73;100561.94;24487;1326;3069971;-64
2022/11/10 13:08:41;;;;;;;36.00;16.90;;;;;;;8.69;65.78;100565.15;24532;1337;3050394;-63
2022/11/10 13:11:34;;;;;;;26.70;14.60;;;;;;;8.57;66.09;100566.61;24538;1334;3056551;-62
2022/11/10 13:14:32;;;;;;;30.30;16.70;;;;;;;8.48;66.26;100566.73;24525;1324;3053054;-61